Time;durP1;ratioP1;P1;durP2;ratioP2;P2;SDS_P1;SDS_P2;PMS_P1;PMS_P2;Temp;Humidity;BMP_temperature;BMP_pressure;BME280_temperature;BME280_humidity;BME280_pressure;Samples;Min_cycle;Max_cycle;Signal;HPM_P1;HPM_P2
2022/03/14 00:02:20;;;;;;;1.95;1.75;;;;;;;11.97;69.85;99866.09;5024930;28;20139;-89
2022/03/14 00:04:48;;;;;;;1.98;1.77;;;;;;;12.01;70.47;99870.16;5032600;28;20068;-89
2022/03/14 00:07:13;;;;;;;2.50;2.10;;;;;;;11.97;70.05;99877.66;5032880;28;20040;-89
2022/03/14 00:09:39;;;;;;;2.50;1.88;;;;;;;11.97;70.26;99885.69;5032841;28;21021;-89
2022/03/14 00:12:07;;;;;;;3.17;1.70;;;;;;;12.02;70.53;99889.75;5032378;28;20524;-89
2022/03/14 00:14:32;;;;;;;1.95;1.75;;;;;;;12.05;70.51;99895.66;5033681;28;20035;-89
2022/03/14 00:16:57;;;;;;;1.80;1.67;;;;;;;12.05;70.66;99903.72;5032018;28;20040;-89
2022/03/14 00:19:23;;;;;;;2.10;1.88;;;;;;;12.09;70.96;99897.06;5032932;28;20036;-89
2022/03/14 00:21:49;;;;;;;1.73;1.63;;;;;;;12.08;70.82;99903.41;5031711;28;20097;-89
2022/03/14 00:24:15;;;;;;;1.60;1.50;;;;;;;12.06;70.84;99904.56;5032705;28;20028;-89
2022/03/14 00:26:40;;;;;;;3.15;1.95;;;;;;;12.04;70.47;99895.81;5031529;28;20046;-89
2022/03/14 00:29:07;;;;;;;2.67;1.80;;;;;;;11.93;70.63;99904.91;5049059;28;20028;-89
2022/03/14 00:31:32;;;;;;;1.60;1.50;;;;;;;11.94;70.76;99910.13;5024363;28;20028;-88
2022/03/14 00:33:58;;;;;;;1.98;1.75;;;;;;;11.92;70.34;99911.25;5031974;28;20032;-90
2022/03/14 00:36:25;;;;;;;1.70;1.60;;;;;;;11.87;70.25;99909.03;5031159;28;20090;-89
2022/03/14 00:38:51;;;;;;;1.80;1.70;;;;;;;11.90;70.49;99906.03;5032126;28;20028;-88
2022/03/14 00:41:25;;;;;;;1.80;1.60;;;;;;;11.95;71.05;99909.13;5031902;28;20436;-89
2022/03/14 00:43:51;;;;;;;1.60;1.50;;;;;;;12.04;71.68;99919.94;5032468;28;20041;-88
2022/03/14 00:46:17;;;;;;;1.65;1.48;;;;;;;12.05;70.80;99921.63;5030171;28;20039;-89
2022/03/14 00:48:44;;;;;;;1.58;1.48;;;;;;;12.02;71.00;99930.81;5032562;28;20451;-89
2022/03/14 00:51:09;;;;;;;1.85;1.30;;;;;;;11.98;71.01;99932.94;5030697;28;20493;-89
2022/03/14 00:53:35;;;;;;;1.70;1.60;;;;;;;11.98;70.75;99929.41;5031724;28;20032;-89
2022/03/14 00:56:01;;;;;;;1.40;1.30;;;;;;;11.96;70.27;99934.09;5030773;28;20082;-89
2022/03/14 00:58:26;;;;;;;1.40;1.30;;;;;;;11.92;70.79;99936.22;5031928;28;20045;-89
2022/03/14 01:00:52;;;;;;;1.40;1.30;;;;;;;11.88;70.47;99936.66;5031336;28;20028;-89
2022/03/14 01:03:17;;;;;;;1.40;1.30;;;;;;;11.92;71.33;99938.06;5030858;28;20032;-89
2022/03/14 01:05:44;;;;;;;1.67;1.40;;;;;;;11.90;70.84;99942.72;5031335;28;20049;-89
2022/03/14 01:08:10;;;;;;;1.25;1.15;;;;;;;11.90;70.50;99950.75;5031073;28;20039;-89
2022/03/14 01:10:35;;;;;;;1.20;1.10;;;;;;;11.95;70.96;99949.31;5031370;28;20037;-89
2022/03/14 01:13:04;;;;;;;1.63;1.27;;;;;;;11.90;70.65;99954.28;5057324;28;20028;-89
2022/03/14 01:15:32;;;;;;;1.45;1.35;;;;;;;11.94;70.91;99966.38;5027833;28;20036;-89
2022/03/14 01:17:58;;;;;;;2.00;1.30;;;;;;;11.90;70.30;99965.00;5032160;28;20028;-89
2022/03/14 01:20:25;;;;;;;1.95;1.30;;;;;;;11.90;70.35;99973.03;5048615;28;20050;-89
2022/03/14 01:22:50;;;;;;;1.30;1.20;;;;;;;11.92;70.97;99975.56;5031794;28;20028;-89
2022/03/14 01:25:16;;;;;;;1.30;1.20;;;;;;;11.89;71.32;99978.53;5030640;28;20029;-89
2022/03/14 01:27:41;;;;;;;1.48;1.38;;;;;;;11.88;71.96;99972.34;5031379;28;20024;-89
2022/03/14 01:30:07;;;;;;;1.45;1.35;;;;;;;11.84;72.36;99973.63;5029920;28;20467;-89
2022/03/14 01:32:32;;;;;;;1.60;1.30;;;;;;;11.88;72.62;99972.34;5023762;28;20928;-89
2022/03/14 01:34:58;;;;;;;1.20;1.10;;;;;;;11.87;72.85;99989.41;5031130;28;20036;-89
2022/03/14 01:37:23;;;;;;;1.92;1.45;;;;;;;11.83;73.23;99985.31;5031198;28;20032;-88
2022/03/14 01:39:49;;;;;;;1.40;1.30;;;;;;;11.84;73.85;99986.19;5031201;28;20071;-89
2022/03/14 01:42:16;;;;;;;1.70;1.30;;;;;;;11.85;73.87;99990.53;5031108;28;20082;-89
2022/03/14 01:44:41;;;;;;;1.50;1.40;;;;;;;11.85;73.32;100001.25;5031533;28;20040;-88
2022/03/14 01:47:06;;;;;;;1.35;1.25;;;;;;;11.80;73.29;99998.13;5026256;28;20051;-89
2022/03/14 01:49:32;;;;;;;1.35;1.25;;;;;;;11.75;74.38;100001.22;5031412;28;20024;-88
2022/03/14 01:51:58;;;;;;;2.97;1.30;;;;;;;11.78;74.59;99997.44;5030400;28;20024;-89
2022/03/14 01:54:24;;;;;;;1.63;1.52;;;;;;;11.75;74.93;99995.88;5047968;28;20021;-89
2022/03/14 01:56:50;;;;;;;1.55;1.45;;;;;;;11.76;75.01;99997.56;5030656;28;20067;-89
2022/03/14 01:59:15;;;;;;;1.50;1.40;;;;;;;11.78;75.16;100000.97;5026509;28;20540;-87
2022/03/14 02:01:51;;;;;;;1.42;1.33;;;;;;;11.79;74.97;99999.13;5026460;28;20036;-89
2022/03/14 02:04:18;;;;;;;1.77;1.63;;;;;;;11.72;75.09;99996.16;5011190;28;20064;-90
2022/03/14 02:06:46;;;;;;;1.73;1.40;;;;;;;11.68;75.37;100000.13;5027755;28;20029;-88
2022/03/14 02:09:12;;;;;;;1.50;1.40;;;;;;;11.73;75.86;100000.53;5011517;28;20029;-88
2022/03/14 02:11:37;;;;;;;1.88;1.55;;;;;;;11.75;75.65;99997.69;5009890;28;20036;-89
2022/03/14 02:14:06;;;;;;;1.77;1.52;;;;;;;11.71;75.65;100002.50;5011420;28;20070;-89
2022/03/14 02:16:31;;;;;;;1.60;1.50;;;;;;;11.66;75.56;100010.13;5028043;28;20482;-88
2022/03/14 02:18:56;;;;;;;1.77;1.60;;;;;;;11.67;75.77;100018.03;5011358;28;20064;-90
2022/03/14 02:21:22;;;;;;;1.77;1.50;;;;;;;11.73;75.80;100015.75;5011277;28;20055;-89
2022/03/14 02:23:47;;;;;;;1.70;1.60;;;;;;;11.73;75.96;100011.25;5015019;28;20029;-89
2022/03/14 02:26:13;;;;;;;1.75;1.65;;;;;;;11.70;75.61;100013.38;5014810;28;20521;-89
2022/03/14 02:28:38;;;;;;;1.88;1.65;;;;;;;11.64;75.26;100023.66;5029803;28;20112;-89
2022/03/14 02:31:06;;;;;;;1.60;1.50;;;;;;;11.66;75.09;100026.19;5030514;28;20486;-89
2022/03/14 02:33:32;;;;;;;1.48;1.38;;;;;;;11.62;75.11;100028.31;5031189;28;20561;-89
2022/03/14 02:35:58;;;;;;;1.60;1.50;;;;;;;11.59;74.59;100025.94;5030548;28;20091;-89
2022/03/14 02:38:23;;;;;;;1.60;1.50;;;;;;;11.57;74.41;100019.03;5014733;28;20047;-89
2022/03/14 02:40:49;;;;;;;1.92;1.50;;;;;;;11.54;73.98;100044.25;5014098;28;20514;-88
2022/03/14 02:43:16;;;;;;;1.63;1.48;;;;;;;11.56;74.49;100042.28;5014035;28;20039;-89
2022/03/14 02:45:43;;;;;;;1.48;1.35;;;;;;;11.53;74.09;100042.56;5014413;28;20032;-89
2022/03/14 02:48:09;;;;;;;1.35;1.25;;;;;;;11.52;73.83;100048.06;5031151;28;20029;-89
2022/03/14 02:50:48;;;;;;;1.88;1.45;;;;;;;11.51;73.40;100051.75;5030727;28;20040;-89
2022/03/14 02:53:14;;;;;;;2.03;1.55;;;;;;;11.48;73.42;100052.03;5030926;28;20486;-89
2022/03/14 02:55:40;;;;;;;1.42;1.33;;;;;;;11.54;73.38;100063.00;5030312;28;20087;-89
2022/03/14 02:58:05;;;;;;;1.67;1.40;;;;;;;11.44;72.89;100069.34;5030263;28;20045;-89
2022/03/14 03:00:35;;;;;;;1.85;1.63;;;;;;;11.37;73.37;100077.09;5038928;28;20049;-88
2022/03/14 03:03:02;;;;;;;1.60;1.48;;;;;;;11.34;72.62;100082.72;5047409;28;20112;-89
2022/03/14 03:05:31;;;;;;;1.50;1.40;;;;;;;11.38;73.16;100084.16;5037381;28;20036;-89
2022/03/14 03:08:01;;;;;;;1.27;1.17;;;;;;;11.41;72.91;100086.56;5028293;28;20031;-89
2022/03/14 03:10:28;;;;;;;1.50;1.40;;;;;;;11.42;72.92;100087.41;5014461;28;20127;-89
2022/03/14 03:12:53;;;;;;;1.45;1.35;;;;;;;11.44;73.46;100091.63;5021742;28;20025;-88
2022/03/14 03:15:19;;;;;;;1.60;1.50;;;;;;;11.41;73.31;100097.25;5030115;28;20045;-88
2022/03/14 03:17:45;;;;;;;1.75;1.40;;;;;;;11.39;73.26;100103.75;5030321;28;20039;-89
2022/03/14 03:20:11;;;;;;;1.88;1.42;;;;;;;11.36;73.26;100102.19;5030178;28;20033;-89
2022/03/14 03:22:38;;;;;;;1.60;1.50;;;;;;;11.33;72.91;100111.31;5014157;28;20070;-88
2022/03/14 03:25:07;;;;;;;1.65;1.55;;;;;;;11.38;73.09;100118.13;5029868;28;20060;-89
2022/03/14 03:27:32;;;;;;;;;;;;;;;11.35;73.04;100122.75;5029401;28;20494;-89
2022/03/14 03:30:01;;;;;;;1.50;1.40;;;;;;;11.35;72.86;100120.09;5012850;28;19913;-89
2022/03/14 03:32:26;;;;;;;1.90;1.60;;;;;;;11.38;73.16;100135.03;5013363;28;20021;-89
2022/03/14 03:34:52;;;;;;;1.58;1.48;;;;;;;11.33;72.83;100139.91;5045721;28;20107;-89
2022/03/14 03:37:18;;;;;;;2.00;1.70;;;;;;;11.29;73.21;100144.72;5045792;28;20514;-89
2022/03/14 03:39:44;;;;;;;1.63;1.52;;;;;;;11.26;72.80;100146.81;5013561;28;20033;-89
2022/03/14 03:42:10;;;;;;;1.70;1.60;;;;;;;11.23;72.85;100155.13;5029756;28;20029;-89
2022/03/14 03:44:35;;;;;;;1.80;1.45;;;;;;;11.34;73.48;100149.66;5013174;28;20105;-89
2022/03/14 03:47:01;;;;;;;1.50;1.40;;;;;;;11.34;73.41;100161.19;5045687;28;20037;-89
2022/03/14 03:49:28;;;;;;;2.33;1.15;;;;;;;11.31;73.09;100166.84;5029914;28;20029;-89
2022/03/14 03:51:53;;;;;;;1.70;1.60;;;;;;;11.25;73.34;100175.41;5028460;28;20037;-89
2022/03/14 03:54:18;;;;;;;1.70;1.50;;;;;;;11.22;73.06;100181.03;5029658;28;20036;-89
2022/03/14 03:56:44;;;;;;;3.22;1.60;;;;;;;11.19;73.17;100184.00;5029638;28;20497;-88
2022/03/14 03:59:09;;;;;;;2.42;1.75;;;;;;;11.19;73.71;100192.03;5031975;28;20754;-89
2022/03/14 04:01:35;;;;;;;1.58;1.48;;;;;;;11.21;73.39;100189.22;5031926;28;20036;-89
2022/03/14 04:04:01;;;;;;;1.50;1.40;;;;;;;11.27;73.50;100196.69;5032362;28;20025;-89
2022/03/14 04:06:30;;;;;;;1.80;1.50;;;;;;;11.27;73.09;100204.72;5031150;28;20025;-89
2022/03/14 04:08:55;;;;;;;1.60;1.50;;;;;;;11.28;73.22;100204.59;5033434;28;20497;-89
2022/03/14 04:11:21;;;;;;;2.03;1.70;;;;;;;11.26;73.09;100205.72;5032093;28;20028;-89
2022/03/14 04:13:51;;;;;;;1.73;1.38;;;;;;;11.21;73.04;100206.13;5042308;28;20084;-89
2022/03/14 04:16:17;;;;;;;2.05;1.40;;;;;;;11.27;73.29;100215.44;5031649;28;20414;-89
2022/03/14 04:18:43;;;;;;;1.80;1.65;;;;;;;11.17;72.71;100210.06;5033801;28;20028;-89
2022/03/14 04:21:08;;;;;;;3.30;1.45;;;;;;;11.20;73.10;100216.97;5048439;28;20051;-89
2022/03/14 04:23:34;;;;;;;2.97;1.42;;;;;;;11.21;73.08;100221.34;5032544;28;20028;-89
2022/03/14 04:25:59;;;;;;;2.10;1.50;;;;;;;11.26;73.29;100227.13;5031902;28;20081;-89
2022/03/14 04:28:25;;;;;;;2.42;1.45;;;;;;;11.21;73.21;100227.53;5032252;28;20038;-89
2022/03/14 04:30:50;;;;;;;1.73;1.45;;;;;;;11.26;73.42;100236.00;5031800;28;21438;-89
2022/03/14 04:33:15;;;;;;;1.73;1.50;;;;;;;11.18;72.59;100235.00;5031734;28;20039;-89
2022/03/14 04:35:41;;;;;;;1.70;1.60;;;;;;;11.15;72.91;100235.25;5048909;28;20032;-89
2022/03/14 04:38:09;;;;;;;2.60;1.50;;;;;;;11.18;72.78;100240.34;5030925;28;20032;-89
2022/03/14 04:40:35;;;;;;;3.58;1.42;;;;;;;11.22;73.15;100244.44;5031159;28;20028;-89
2022/03/14 04:43:07;;;;;;;2.70;1.80;;;;;;;11.20;73.04;100249.09;5032251;28;20063;-90
2022/03/14 04:45:34;;;;;;;2.50;1.48;;;;;;;11.21;72.96;100261.50;5047479;28;20032;-89
2022/03/14 04:48:00;;;;;;;3.30;1.75;;;;;;;11.13;73.07;100264.84;5031571;28;20040;-89
2022/03/14 04:50:25;;;;;;;2.20;1.52;;;;;;;11.10;73.11;100264.25;5031606;28;20032;-89
2022/03/14 04:52:51;;;;;;;3.50;1.80;;;;;;;11.15;73.60;100270.91;5031026;28;20036;-89
2022/03/14 04:55:16;;;;;;;3.20;1.52;;;;;;;11.15;73.90;100275.41;5031670;28;20037;-89
2022/03/14 04:57:41;;;;;;;3.10;1.80;;;;;;;11.12;73.30;100283.72;5032088;28;20032;-89
2022/03/14 05:00:08;;;;;;;4.82;1.88;;;;;;;11.08;73.52;100282.28;5031119;28;20032;-89
2022/03/14 05:02:34;;;;;;;2.53;1.90;;;;;;;11.06;73.25;100284.25;5031583;28;20032;-89
2022/03/14 05:05:00;;;;;;;4.32;1.92;;;;;;;11.06;73.51;100290.44;5030785;28;20028;-89
2022/03/14 05:07:25;;;;;;;3.28;1.50;;;;;;;11.05;73.58;100288.75;5032114;28;20034;-89
2022/03/14 05:09:50;;;;;;;3.92;1.80;;;;;;;11.05;73.29;100304.81;5030783;28;20028;-88
2022/03/14 05:12:16;;;;;;;3.20;1.85;;;;;;;11.12;73.80;100299.78;5031290;28;20490;-89
2022/03/14 05:14:41;;;;;;;4.05;1.98;;;;;;;11.09;73.55;100308.91;5030833;28;20039;-89
2022/03/14 05:17:07;;;;;;;3.53;1.70;;;;;;;11.03;73.49;100318.31;5030732;28;20028;-89
2022/03/14 05:19:33;;;;;;;4.03;1.92;;;;;;;11.02;73.69;100315.78;5031167;28;20047;-88
2022/03/14 05:21:58;;;;;;;5.53;1.80;;;;;;;11.08;74.18;100309.91;5047891;28;20033;-89
2022/03/14 05:24:23;;;;;;;4.07;2.05;;;;;;;11.02;73.82;100327.31;5030813;28;20500;-89
2022/03/14 05:26:51;;;;;;;2.78;1.67;;;;;;;11.03;73.66;100322.81;5047552;28;20397;-89
2022/03/14 05:29:16;;;;;;;2.47;1.70;;;;;;;11.02;74.02;100323.81;5031662;28;20029;-89
2022/03/14 05:31:42;;;;;;;4.47;1.88;;;;;;;10.97;74.18;100331.38;5030418;28;20038;-89
2022/03/14 05:34:07;;;;;;;3.78;2.03;;;;;;;10.97;74.81;100326.03;5031303;28;20036;-89
2022/03/14 05:36:33;;;;;;;4.05;1.83;;;;;;;11.00;75.17;100336.47;5030980;28;20029;-88
2022/03/14 05:38:58;;;;;;;3.75;1.92;;;;;;;11.00;74.88;100339.16;5031316;28;20139;-88
2022/03/14 05:41:24;;;;;;;4.82;2.08;;;;;;;10.99;74.91;100348.16;5030737;28;20060;-88
2022/03/14 05:43:49;;;;;;;3.38;1.98;;;;;;;10.99;75.10;100350.84;5047601;28;20078;-89
2022/03/14 05:46:14;;;;;;;2.72;1.77;;;;;;;10.90;74.95;100346.25;5030550;28;20086;-89
2022/03/14 05:48:40;;;;;;;6.63;2.22;;;;;;;10.90;74.66;100346.25;5030426;28;20037;-88
2022/03/14 05:51:07;;;;;;;4.30;2.10;;;;;;;10.93;74.80;100351.34;5029381;28;20036;-89
2022/03/14 05:53:32;;;;;;;3.80;2.03;;;;;;;10.95;75.12;100347.56;5031285;28;20039;-89
2022/03/14 05:55:58;;;;;;;3.40;1.63;;;;;;;10.99;75.41;100348.16;5030632;28;20033;-88
2022/03/14 05:58:24;;;;;;;4.85;2.22;;;;;;;10.97;74.87;100358.13;5034014;28;20037;-88
2022/03/14 06:00:51;;;;;;;3.10;1.90;;;;;;;11.06;75.25;100354.69;5034328;28;20075;-88
2022/03/14 06:03:17;;;;;;;3.33;2.08;;;;;;;11.05;74.90;100363.69;5035266;28;20129;-89
2022/03/14 06:05:42;;;;;;;4.22;1.80;;;;;;;11.02;74.51;100362.13;5035429;28;20512;-88
2022/03/14 06:08:08;;;;;;;3.95;2.00;;;;;;;10.99;74.19;100362.38;5034564;28;20040;-89
2022/03/14 06:10:36;;;;;;;4.43;1.98;;;;;;;10.98;74.67;100376.75;5034554;28;20770;-89
2022/03/14 06:13:02;;;;;;;3.47;1.80;;;;;;;11.00;74.75;100376.63;5034006;28;20032;-89
2022/03/14 06:15:28;;;;;;;3.88;1.85;;;;;;;11.01;74.61;100378.31;5033505;28;20445;-90
2022/03/14 06:17:53;;;;;;;4.32;1.90;;;;;;;11.06;74.97;100380.59;5031942;28;20078;-89
2022/03/14 06:20:18;;;;;;;2.28;1.63;;;;;;;11.00;74.43;100395.34;5029050;28;20107;-88
2022/03/14 06:22:46;;;;;;;3.13;1.70;;;;;;;10.97;74.36;100390.25;5046197;28;20024;-89
2022/03/14 06:25:13;;;;;;;6.97;1.83;;;;;;;10.94;74.45;100394.03;5044357;28;20031;-88
2022/03/14 06:27:39;;;;;;;5.38;1.83;;;;;;;10.95;74.65;100397.56;5031139;28;20056;-89
2022/03/14 06:30:06;;;;;;;4.18;2.00;;;;;;;10.90;74.41;100392.59;5048087;28;20079;-88
2022/03/14 06:32:39;;;;;;;7.40;2.08;;;;;;;10.88;74.28;100399.03;5032704;28;20508;-88
2022/03/14 06:35:06;;;;;;;5.03;2.00;;;;;;;10.89;74.22;100396.25;5023849;28;20036;-89
2022/03/14 06:37:32;;;;;;;6.88;2.70;;;;;;;10.87;74.26;100395.50;5032093;28;20402;-89
2022/03/14 06:39:57;;;;;;;3.65;1.70;;;;;;;10.91;74.59;100391.63;5047905;28;20036;-89
2022/03/14 06:42:23;;;;;;;3.15;1.70;;;;;;;10.89;74.20;100401.59;5049806;28;20107;-88
2022/03/14 06:44:50;;;;;;;3.55;2.00;;;;;;;10.81;74.28;100406.72;5042775;28;20056;-89
2022/03/14 06:47:17;;;;;;;3.78;2.20;;;;;;;10.78;74.08;100414.16;5032830;28;20028;-88
2022/03/14 06:49:44;;;;;;;4.22;2.00;;;;;;;10.78;74.36;100415.00;5049026;28;20490;-88
2022/03/14 06:52:13;;;;;;;3.42;2.13;;;;;;;10.79;74.22;100415.84;5031588;28;20036;-89
2022/03/14 06:54:38;;;;;;;3.63;1.70;;;;;;;10.86;74.59;100417.88;5031843;28;20028;-89
2022/03/14 06:57:05;;;;;;;3.35;1.80;;;;;;;10.81;73.85;100424.59;5033632;28;20032;-88
2022/03/14 06:59:30;;;;;;;3.85;2.00;;;;;;;10.81;74.10;100429.94;5031998;28;20485;-89
2022/03/14 07:01:55;;;;;;;4.15;1.95;;;;;;;10.73;74.05;100434.13;5031123;28;20063;-89
2022/03/14 07:04:21;;;;;;;3.72;1.77;;;;;;;10.71;73.61;100432.53;5031538;28;20064;-89
2022/03/14 07:06:46;;;;;;;3.63;1.75;;;;;;;10.75;74.32;100436.66;5032516;28;20021;-88
2022/03/14 07:09:12;;;;;;;5.05;1.92;;;;;;;10.81;74.60;100443.31;5034490;28;20443;-89
2022/03/14 07:11:37;;;;;;;4.57;2.10;;;;;;;10.84;74.79;100441.25;5033324;28;20052;-89
2022/03/14 07:14:03;;;;;;;3.22;1.98;;;;;;;10.81;74.47;100446.00;5051304;28;20032;-90
2022/03/14 07:16:28;;;;;;;4.35;2.20;;;;;;;10.83;74.49;100452.06;5038063;28;20401;-88
2022/03/14 07:18:54;;;;;;;5.93;2.05;;;;;;;10.76;74.52;100451.75;5032766;28;20103;-88
2022/03/14 07:21:19;;;;;;;5.18;1.90;;;;;;;10.69;74.43;100458.56;5034170;28;20040;-89
2022/03/14 07:23:44;;;;;;;3.45;1.80;;;;;;;10.69;74.59;100469.28;5033739;28;20028;-89
2022/03/14 07:26:11;;;;;;;3.30;1.80;;;;;;;10.71;74.82;100462.81;5033318;28;20119;-88
2022/03/14 07:28:36;;;;;;;5.05;2.00;;;;;;;10.77;74.83;100477.50;5041658;28;20031;-89
2022/03/14 07:31:02;;;;;;;4.90;1.90;;;;;;;10.75;74.84;100470.59;5031644;28;20029;-89
2022/03/14 07:33:28;;;;;;;5.75;2.28;;;;;;;10.82;74.95;100479.81;5033005;28;20086;-88
2022/03/14 07:35:54;;;;;;;5.13;2.05;;;;;;;10.85;75.25;100496.44;5026248;28;20028;-89
2022/03/14 07:38:19;;;;;;;5.78;1.75;;;;;;;10.90;75.44;100486.25;5032999;28;20064;-88
2022/03/14 07:40:45;;;;;;;3.55;1.95;;;;;;;10.95;75.24;100499.25;5049674;28;20064;-89
2022/03/14 07:43:11;;;;;;;5.47;2.20;;;;;;;10.92;75.07;100497.69;5031623;28;20116;-89
2022/03/14 07:45:37;;;;;;;4.03;2.20;;;;;;;10.94;75.06;100494.88;5029341;28;20036;-89
2022/03/14 07:48:02;;;;;;;3.92;1.83;;;;;;;10.96;75.36;100501.78;5030179;28;20025;-89
2022/03/14 07:50:27;;;;;;;3.65;1.73;;;;;;;11.00;75.41;100505.06;5031762;28;20085;-89
2022/03/14 07:52:55;;;;;;;4.70;2.10;;;;;;;10.93;75.04;100502.06;5030086;28;20089;-89
2022/03/14 07:55:20;;;;;;;4.53;2.28;;;;;;;10.91;75.27;100503.16;5047719;28;20047;-89
2022/03/14 07:57:46;;;;;;;2.75;2.20;;;;;;;10.89;75.25;100507.78;5031631;28;20059;-89
2022/03/14 08:00:14;;;;;;;4.70;2.13;;;;;;;10.95;76.02;100515.31;5048527;28;20032;-89
2022/03/14 08:02:40;;;;;;;4.10;1.88;;;;;;;10.96;75.28;100508.97;5048289;28;20041;-90
2022/03/14 08:05:06;;;;;;;3.90;2.10;;;;;;;11.02;75.61;100522.69;5033129;28;20041;-89
2022/03/14 08:07:32;;;;;;;3.40;2.10;;;;;;;11.07;75.55;100524.13;5049240;28;20033;-88
2022/03/14 08:09:58;;;;;;;2.95;1.80;;;;;;;11.02;75.62;100525.38;5031977;28;20398;-89
2022/03/14 08:12:23;;;;;;;4.20;2.25;;;;;;;11.09;75.84;100535.56;5032362;28;20433;-88
2022/03/14 08:14:50;;;;;;;4.85;2.28;;;;;;;11.11;75.20;100536.28;5032274;28;20036;-89
2022/03/14 08:17:16;;;;;;;4.72;1.95;;;;;;;11.14;75.81;100552.94;5047961;28;20056;-89
2022/03/14 08:19:41;;;;;;;4.15;2.30;;;;;;;11.10;75.37;100545.28;5030981;28;20074;-89
2022/03/14 08:22:07;;;;;;;4.25;2.13;;;;;;;11.00;75.02;100553.25;5032008;28;20068;-89
2022/03/14 08:24:33;;;;;;;3.33;2.30;;;;;;;11.04;75.52;100560.88;5032701;28;20032;-89
2022/03/14 08:26:58;;;;;;;6.07;2.58;;;;;;;11.06;75.54;100560.75;5031763;28;20519;-89
2022/03/14 08:29:24;;;;;;;3.03;2.10;;;;;;;11.07;75.15;100559.78;5049219;28;20662;-89
2022/03/14 08:31:49;;;;;;;3.63;1.98;;;;;;;11.03;75.44;100561.88;5030080;28;20094;-89
2022/03/14 08:34:15;;;;;;;3.67;2.08;;;;;;;11.07;75.25;100564.28;5030611;28;20039;-88
2022/03/14 08:36:40;;;;;;;3.60;2.20;;;;;;;11.10;75.37;100567.56;5028541;28;20481;-89
2022/03/14 08:39:09;;;;;;;3.83;2.28;;;;;;;11.07;75.19;100565.13;5031688;28;20031;-88
2022/03/14 08:41:36;;;;;;;4.95;2.50;;;;;;;11.03;75.37;100572.56;5030597;28;20379;-89
2022/03/14 08:44:03;;;;;;;4.97;2.33;;;;;;;11.10;75.29;100582.78;5031762;28;20052;-89
2022/03/14 08:46:28;;;;;;;4.10;2.45;;;;;;;11.08;75.03;100579.38;5046454;28;20036;-89
2022/03/14 08:48:54;;;;;;;3.95;2.15;;;;;;;11.13;75.23;100587.88;5030118;28;20090;-89
2022/03/14 08:51:19;;;;;;;3.78;2.20;;;;;;;11.13;75.07;100585.19;5030434;28;20037;-88
2022/03/14 08:53:44;;;;;;;4.53;2.50;;;;;;;11.15;74.63;100588.59;5030494;28;20038;-89
2022/03/14 08:56:10;;;;;;;5.72;2.45;;;;;;;11.11;74.35;100587.16;5029400;28;20490;-89
2022/03/14 08:58:35;;;;;;;3.90;2.25;;;;;;;11.14;74.62;100595.78;5030879;28;20049;-88
2022/03/14 09:01:01;;;;;;;4.47;2.33;;;;;;;11.14;74.44;100598.44;5030284;28;20097;-89
2022/03/14 09:03:26;;;;;;;2.83;2.08;;;;;;;11.20;75.02;100597.09;5030556;28;20029;-88
2022/03/14 09:05:58;;;;;;;2.97;2.20;;;;;;;11.32;75.00;100602.28;5029534;28;20056;-89
2022/03/14 09:08:26;;;;;;;2.63;2.20;;;;;;;11.33;74.65;100600.47;5031398;28;20134;-89
2022/03/14 09:10:53;;;;;;;4.35;2.28;;;;;;;11.38;75.02;100606.31;5031084;28;20024;-89
2022/03/14 09:13:23;;;;;;;4.78;2.45;;;;;;;11.32;74.11;100617.50;5031370;28;20036;-89
2022/03/14 09:15:50;;;;;;;6.13;2.53;;;;;;;11.30;74.01;100622.13;5030489;28;20027;-89
2022/03/14 09:18:15;;;;;;;2.53;2.10;;;;;;;11.32;74.23;100609.47;5030666;28;20563;-89
2022/03/14 09:20:42;;;;;;;4.30;2.28;;;;;;;11.33;74.59;100609.34;5030733;28;20071;-89
2022/03/14 09:23:08;;;;;;;3.50;2.53;;;;;;;11.32;73.75;100609.47;5029377;28;20043;-89
2022/03/14 09:25:33;;;;;;;5.28;2.63;;;;;;;11.23;73.37;100616.44;5031660;28;20473;-89
2022/03/14 09:27:58;;;;;;;2.80;1.92;;;;;;;11.37;74.83;100622.50;5030546;28;20021;-89
2022/03/14 09:30:25;;;;;;;4.07;2.28;;;;;;;11.35;74.70;100631.50;5030097;28;20032;-89
2022/03/14 09:32:51;;;;;;;4.95;2.38;;;;;;;11.27;74.04;100628.59;5029960;28;21024;-89
2022/03/14 09:35:18;;;;;;;3.17;2.53;;;;;;;11.24;73.30;100639.56;5021443;28;20051;-90
2022/03/14 09:37:44;;;;;;;3.58;2.53;;;;;;;11.24;73.91;100641.38;5030298;28;20028;-89
2022/03/14 09:40:12;;;;;;;6.53;3.20;;;;;;;11.26;73.93;100648.31;5030699;28;20040;-89
2022/03/14 09:42:41;;;;;;;5.97;3.17;;;;;;;11.20;73.35;100648.81;5047342;28;20048;-89
2022/03/14 09:45:08;;;;;;;4.80;2.80;;;;;;;11.20;73.31;100656.84;5022366;28;20078;-90
2022/03/14 09:47:39;;;;;;;3.08;2.63;;;;;;;11.19;73.15;100647.09;5031967;28;20047;-89
2022/03/14 09:50:11;;;;;;;3.20;2.30;;;;;;;11.28;73.53;100658.88;5031715;28;20115;-89
2022/03/14 09:52:39;;;;;;;2.97;2.20;;;;;;;11.35;73.86;100662.78;5040006;28;20032;-90
2022/03/14 09:55:09;;;;;;;3.15;2.10;;;;;;;11.29;72.47;100673.97;5031537;28;20115;-89
2022/03/14 09:57:36;;;;;;;4.32;2.35;;;;;;;11.39;73.46;100674.09;5032194;28;20448;-89
2022/03/14 10:00:06;;;;;;;3.15;2.22;;;;;;;11.39;72.69;100690.19;5044539;28;20052;-89
2022/03/14 10:02:36;;;;;;;2.05;1.77;;;;;;;11.38;71.51;100686.66;5009566;28;20025;-89
2022/03/14 10:05:06;;;;;;;3.67;2.10;;;;;;;11.31;70.99;100702.34;5011667;28;20371;-89
2022/03/14 10:07:33;;;;;;;5.85;2.20;;;;;;;11.27;71.04;100713.41;5026898;28;20104;-88
2022/03/14 10:09:58;;;;;;;4.07;2.30;;;;;;;11.30;71.24;100726.56;5012159;28;20047;-89
2022/03/14 10:12:23;;;;;;;3.38;2.08;;;;;;;11.37;71.72;100721.59;5028903;28;20414;-89
2022/03/14 10:14:50;;;;;;;4.20;2.10;;;;;;;11.35;71.00;100721.69;5012472;28;20037;-89
2022/03/14 10:17:15;;;;;;;4.03;2.08;;;;;;;11.41;71.35;100713.19;5029267;28;20036;-89
2022/03/14 10:19:40;;;;;;;4.25;2.15;;;;;;;11.39;71.09;100731.19;5037689;28;20025;-89
2022/03/14 10:22:14;;;;;;;3.88;2.05;;;;;;;11.40;70.89;100726.69;5012003;28;20513;-89
2022/03/14 10:24:40;;;;;;;4.05;2.00;;;;;;;11.40;71.03;100727.53;5021003;28;20033;-89
2022/03/14 10:27:05;;;;;;;2.53;1.85;;;;;;;11.42;70.54;100727.41;5012644;28;20071;-89
2022/03/14 10:29:31;;;;;;;2.85;2.08;;;;;;;11.46;70.92;100736.91;5013248;28;20063;-90
2022/03/14 10:31:57;;;;;;;4.60;1.58;;;;;;;11.51;70.13;100732.88;5012501;28;20120;-89
2022/03/14 10:34:23;;;;;;;5.50;2.25;;;;;;;11.53;70.17;100740.78;5014994;28;20039;-89
2022/03/14 10:36:54;;;;;;;3.42;1.95;;;;;;;11.58;70.40;100746.63;5013165;28;20036;-89
2022/03/14 10:39:26;;;;;;;6.15;2.55;;;;;;;11.59;70.24;100741.13;5035702;28;20033;-89
2022/03/14 10:42:05;;;;;;;3.78;2.30;;;;;;;11.63;70.29;100745.25;5012463;28;20033;-89
2022/03/14 10:44:32;;;;;;;3.65;1.77;;;;;;;11.64;69.81;100744.28;5036348;28;20029;-89
2022/03/14 10:47:05;;;;;;;3.72;2.10;;;;;;;11.66;70.53;100742.34;5028976;28;20033;-89
2022/03/14 10:49:33;;;;;;;3.53;2.20;;;;;;;11.65;70.04;100751.34;5007442;28;20021;-89
2022/03/14 10:52:06;;;;;;;2.70;2.20;;;;;;;11.67;70.38;100757.44;5037916;28;20501;-89
2022/03/14 10:54:35;;;;;;;3.45;2.50;;;;;;;11.60;69.72;100756.22;5022098;28;20100;-90
2022/03/14 10:57:09;;;;;;;3.03;1.70;;;;;;;11.62;70.46;100764.16;5022356;28;20037;-89
2022/03/14 10:59:36;;;;;;;3.78;2.20;;;;;;;11.63;70.97;100765.84;5033080;28;20079;-89
2022/03/14 11:02:02;;;;;;;2.90;2.03;;;;;;;11.62;70.16;100767.69;5031057;28;20036;-89
2022/03/14 11:04:28;;;;;;;3.78;2.05;;;;;;;11.65;71.02;100763.91;5030797;28;20021;-89
2022/03/14 11:07:00;;;;;;;3.58;2.00;;;;;;;11.64;70.55;100768.41;5029537;28;20090;-89
2022/03/14 11:09:45;;;;;;;4.43;2.28;;;;;;;11.66;70.38;100766.44;5025003;28;20036;-89
2022/03/14 11:12:14;;;;;;;2.33;1.98;;;;;;;11.67;70.46;100761.94;5048402;28;20021;-89
2022/03/14 11:14:40;;;;;;;3.17;2.35;;;;;;;11.67;70.27;100756.59;5031349;28;20883;-90
2022/03/14 11:17:13;;;;;;;3.78;2.33;;;;;;;11.69;70.08;100768.03;5030257;28;20041;-89
2022/03/14 11:19:38;;;;;;;3.50;2.25;;;;;;;11.75;70.30;100758.63;5032737;28;20090;-90
2022/03/14 11:22:04;;;;;;;2.92;2.20;;;;;;;11.79;70.31;100770.84;5026777;28;20041;-88
2022/03/14 11:24:30;;;;;;;4.68;2.60;;;;;;;11.80;70.54;100775.22;5029640;28;20032;-90